sensor_id;sensor_type;location;lat;lon;timestamp;temperature;humidity
51011;DHT22;37038;50.182;8.624;2023-01-16T00:01:36;4.80;99.90
51011;DHT22;37038;50.182;8.624;2023-01-16T00:04:29;4.80;99.90
51011;DHT22;37038;50.182;8.624;2023-01-16T00:07:24;4.70;99.90
51011;DHT22;37038;50.182;8.624;2023-01-16T00:10:30;4.60;99.90
51011;DHT22;37038;50.182;8.624;2023-01-16T00:13:44;4.50;99.90
51011;DHT22;37038;50.182;8.624;2023-01-16T00:16:55;4.50;99.90
51011;DHT22;37038;50.182;8.624;2023-01-16T00:20:03;4.40;99.90
51011;DHT22;37038;50.182;8.624;2023-01-16T00:23:01;4.40;99.90
51011;DHT22;37038;50.182;8.624;2023-01-16T00:25:59;4.40;99.90
51011;DHT22;37038;50.182;8.624;2023-01-16T00:29:05;4.40;99.90
51011;DHT22;37038;50.182;8.624;2023-01-16T00:32:11;4.30;99.90
51011;DHT22;37038;50.182;8.624;2023-01-16T00:35:27;4.40;99.90
51011;DHT22;37038;50.182;8.624;2023-01-16T00:38:15;4.30;99.90
51011;DHT22;37038;50.182;8.624;2023-01-16T00:41:08;4.30;99.90
51011;DHT22;37038;50.182;8.624;2023-01-16T00:44:00;4.30;99.90
51011;DHT22;37038;50.182;8.624;2023-01-16T00:47:06;4.30;99.90
51011;DHT22;37038;50.182;8.624;2023-01-16T00:50:06;4.30;99.90
51011;DHT22;37038;50.182;8.624;2023-01-16T00:53:10;4.30;99.90
51011;DHT22;37038;50.182;8.624;2023-01-16T00:56:11;4.30;99.90
51011;DHT22;37038;50.182;8.624;2023-01-16T00:59:06;4.30;99.90
51011;DHT22;37038;50.182;8.624;2023-01-16T01:02:21;4.30;99.90
51011;DHT22;37038;50.182;8.624;2023-01-16T01:05:22;4.30;99.90
51011;DHT22;37038;50.182;8.624;2023-01-16T01:08:13;4.30;99.90
51011;DHT22;37038;50.182;8.624;2023-01-16T01:11:21;4.20;99.90
51011;DHT22;37038;50.182;8.624;2023-01-16T01:14:42;4.20;99.90
51011;DHT22;37038;50.182;8.624;2023-01-16T01:17:46;4.20;99.90
51011;DHT22;37038;50.182;8.624;2023-01-16T01:21:27;4.30;99.90
51011;DHT22;37038;50.182;8.624;2023-01-16T01:24:54;4.30;99.90
51011;DHT22;37038;50.182;8.624;2023-01-16T01:31:12;4.40;99.90
51011;DHT22;37038;50.182;8.624;2023-01-16T01:34:38;4.50;99.90
51011;DHT22;37038;50.182;8.624;2023-01-16T01:37:51;4.50;99.90
51011;DHT22;37038;50.182;8.624;2023-01-16T01:40:58;4.60;99.90
51011;DHT22;37038;50.182;8.624;2023-01-16T01:52:12;4.70;99.90
51011;DHT22;37038;50.182;8.624;2023-01-16T01:55:46;4.60;99.90
51011;DHT22;37038;50.182;8.624;2023-01-16T02:02:17;4.70;99.90
51011;DHT22;37038;50.182;8.624;2023-01-16T02:05:35;4.70;99.90
51011;DHT22;37038;50.182;8.624;2023-01-16T02:08:46;4.60;99.90
51011;DHT22;37038;50.182;8.624;2023-01-16T02:12:07;4.60;99.90
51011;DHT22;37038;50.182;8.624;2023-01-16T02:15:31;4.50;99.90
51011;DHT22;37038;50.182;8.624;2023-01-16T02:42:21;4.40;99.90
51011;DHT22;37038;50.182;8.624;2023-01-16T02:45:29;4.40;99.90
51011;DHT22;37038;50.182;8.624;2023-01-16T02:55:37;4.50;99.90
51011;DHT22;37038;50.182;8.624;2023-01-16T02:58:52;4.60;99.90
51011;DHT22;37038;50.182;8.624;2023-01-16T03:01:48;4.50;99.90
51011;DHT22;37038;50.182;8.624;2023-01-16T03:04:55;4.50;99.90
51011;DHT22;37038;50.182;8.624;2023-01-16T03:08:06;4.50;99.90
51011;DHT22;37038;50.182;8.624;2023-01-16T03:11:18;4.50;99.90
51011;DHT22;37038;50.182;8.624;2023-01-16T03:15:08;4.50;99.90
51011;DHT22;37038;50.182;8.624;2023-01-16T03:23:57;4.40;99.90
51011;DHT22;37038;50.182;8.624;2023-01-16T03:27:02;4.40;99.90
51011;DHT22;37038;50.182;8.624;2023-01-16T03:30:24;4.40;99.90
51011;DHT22;37038;50.182;8.624;2023-01-16T03:33:27;4.40;99.90
51011;DHT22;37038;50.182;8.624;2023-01-16T03:36:27;4.40;99.90
51011;DHT22;37038;50.182;8.624;2023-01-16T03:39:25;4.30;99.90
51011;DHT22;37038;50.182;8.624;2023-01-16T03:42:29;4.30;99.90
51011;DHT22;37038;50.182;8.624;2023-01-16T03:45:39;4.30;99.90
51011;DHT22;37038;50.182;8.624;2023-01-16T03:48:48;4.30;99.90
51011;DHT22;37038;50.182;8.624;2023-01-16T03:51:49;4.40;99.90
51011;DHT22;37038;50.182;8.624;2023-01-16T03:55:21;4.40;99.90
51011;DHT22;37038;50.182;8.624;2023-01-16T03:58:34;4.40;99.90
51011;DHT22;37038;50.182;8.624;2023-01-16T04:01:51;4.40;99.90
51011;DHT22;37038;50.182;8.624;2023-01-16T04:08:01;4.40;99.90
51011;DHT22;37038;50.182;8.624;2023-01-16T04:11:06;4.40;99.90
51011;DHT22;37038;50.182;8.624;2023-01-16T04:14:44;4.50;99.90
51011;DHT22;37038;50.182;8.624;2023-01-16T04:17:40;4.40;99.90
51011;DHT22;37038;50.182;8.624;2023-01-16T04:20:37;4.50;99.90
51011;DHT22;37038;50.182;8.624;2023-01-16T04:23:30;4.40;99.90
51011;DHT22;37038;50.182;8.624;2023-01-16T04:26:35;4.40;99.90
51011;DHT22;37038;50.182;8.624;2023-01-16T04:29:45;4.40;99.90
51011;DHT22;37038;50.182;8.624;2023-01-16T04:32:57;4.40;99.90
51011;DHT22;37038;50.182;8.624;2023-01-16T04:36:17;4.40;99.90
51011;DHT22;37038;50.182;8.624;2023-01-16T04:39:15;4.50;99.90
51011;DHT22;37038;50.182;8.624;2023-01-16T04:42:26;4.40;99.90
51011;DHT22;37038;50.182;8.624;2023-01-16T04:45:26;4.50;99.90
51011;DHT22;37038;50.182;8.624;2023-01-16T04:48:51;4.40;99.90
51011;DHT22;37038;50.182;8.624;2023-01-16T04:51:47;4.40;99.90
51011;DHT22;37038;50.182;8.624;2023-01-16T04:55:17;4.30;99.90
51011;DHT22;37038;50.182;8.624;2023-01-16T04:58:18;4.40;99.90
51011;DHT22;37038;50.182;8.624;2023-01-16T05:01:20;4.30;99.90
51011;DHT22;37038;50.182;8.624;2023-01-16T05:04:31;4.30;99.90
51011;DHT22;37038;50.182;8.624;2023-01-16T05:07:28;4.30;99.90
51011;DHT22;37038;50.182;8.624;2023-01-16T05:13:59;4.30;99.90
51011;DHT22;37038;50.182;8.624;2023-01-16T05:17:33;4.30;99.90
51011;DHT22;37038;50.182;8.624;2023-01-16T05:20:26;4.30;99.90
51011;DHT22;37038;50.182;8.624;2023-01-16T05:27:06;4.40;99.90
51011;DHT22;37038;50.182;8.624;2023-01-16T05:30:07;4.30;99.90
51011;DHT22;37038;50.182;8.624;2023-01-16T05:33:42;4.30;99.90
51011;DHT22;37038;50.182;8.624;2023-01-16T05:36:40;4.30;99.90
51011;DHT22;37038;50.182;8.624;2023-01-16T05:39:43;4.30;99.90
51011;DHT22;37038;50.182;8.624;2023-01-16T05:42:43;4.40;99.90
51011;DHT22;37038;50.182;8.624;2023-01-16T05:45:55;4.40;99.90
51011;DHT22;37038;50.182;8.624;2023-01-16T05:48:52;4.40;99.90
51011;DHT22;37038;50.182;8.624;2023-01-16T05:52:16;4.40;99.90
51011;DHT22;37038;50.182;8.624;2023-01-16T05:59:06;4.40;99.90
51011;DHT22;37038;50.182;8.624;2023-01-16T06:02:34;4.40;99.90
51011;DHT22;37038;50.182;8.624;2023-01-16T06:05:44;4.40;99.90
51011;DHT22;37038;50.182;8.624;2023-01-16T06:09:00;4.50;99.90
51011;DHT22;37038;50.182;8.624;2023-01-16T06:11:59;4.60;99.90
51011;DHT22;37038;50.182;8.624;2023-01-16T06:15:04;4.50;99.90
51011;DHT22;37038;50.182;8.624;2023-01-16T06:18:02;4.50;99.90
51011;DHT22;37038;50.182;8.624;2023-01-16T06:21:26;4.60;99.90
51011;DHT22;37038;50.182;8.624;2023-01-16T06:24:29;4.50;99.90
51011;DHT22;37038;50.182;8.624;2023-01-16T06:27:41;4.50;99.90
51011;DHT22;37038;50.182;8.624;2023-01-16T06:30:41;4.60;99.90
51011;DHT22;37038;50.182;8.624;2023-01-16T06:33:35;4.60;99.90
51011;DHT22;37038;50.182;8.624;2023-01-16T06:36:31;4.60;99.90
51011;DHT22;37038;50.182;8.624;2023-01-16T06:39:33;4.60;99.90
51011;DHT22;37038;50.182;8.624;2023-01-16T06:42:26;4.70;99.90
51011;DHT22;37038;50.182;8.624;2023-01-16T06:45:24;4.70;99.90
51011;DHT22;37038;50.182;8.624;2023-01-16T06:48:17;4.70;99.90
51011;DHT22;37038;50.182;8.624;2023-01-16T06:51:08;4.70;99.90
51011;DHT22;37038;50.182;8.624;2023-01-16T06:54:01;4.80;99.90
51011;DHT22;37038;50.182;8.624;2023-01-16T06:57:25;4.80;99.90
51011;DHT22;37038;50.182;8.624;2023-01-16T07:00:30;4.80;99.90
51011;DHT22;37038;50.182;8.624;2023-01-16T07:03:22;4.80;99.90
51011;DHT22;37038;50.182;8.624;2023-01-16T07:06:38;4.80;99.90
51011;DHT22;37038;50.182;8.624;2023-01-16T07:13:05;4.90;99.90
51011;DHT22;37038;50.182;8.624;2023-01-16T07:16:10;4.90;99.90
51011;DHT22;37038;50.182;8.624;2023-01-16T07:19:31;4.90;99.90
51011;DHT22;37038;50.182;8.624;2023-01-16T07:22:43;4.90;99.90
51011;DHT22;37038;50.182;8.624;2023-01-16T07:25:52;5.00;99.90
51011;DHT22;37038;50.182;8.624;2023-01-16T07:28:43;5.10;99.90
51011;DHT22;37038;50.182;8.624;2023-01-16T07:34:45;4.90;99.90
51011;DHT22;37038;50.182;8.624;2023-01-16T07:37:34;4.80;99.90
51011;DHT22;37038;50.182;8.624;2023-01-16T07:40:23;4.80;99.90
51011;DHT22;37038;50.182;8.624;2023-01-16T07:43:34;4.80;99.90
51011;DHT22;37038;50.182;8.624;2023-01-16T07:55:14;5.00;99.90
51011;DHT22;37038;50.182;8.624;2023-01-16T08:14:06;5.00;99.90
51011;DHT22;37038;50.182;8.624;2023-01-16T08:17:59;5.20;99.90
51011;DHT22;37038;50.182;8.624;2023-01-16T08:28:54;5.50;99.90
51011;DHT22;37038;50.182;8.624;2023-01-16T08:32:29;5.40;99.90
51011;DHT22;37038;50.182;8.624;2023-01-16T08:35:48;5.10;99.90
51011;DHT22;37038;50.182;8.624;2023-01-16T08:39:00;5.00;99.90
51011;DHT22;37038;50.182;8.624;2023-01-16T08:50:38;5.30;99.90
51011;DHT22;37038;50.182;8.624;2023-01-16T08:54:12;5.10;99.90
51011;DHT22;37038;50.182;8.624;2023-01-16T08:57:18;5.00;99.90
51011;DHT22;37038;50.182;8.624;2023-01-16T09:00:26;5.00;99.90
51011;DHT22;37038;50.182;8.624;2023-01-16T09:03:33;4.90;99.90
51011;DHT22;37038;50.182;8.624;2023-01-16T09:06:46;5.00;99.90
51011;DHT22;37038;50.182;8.624;2023-01-16T09:10:06;4.90;99.90
51011;DHT22;37038;50.182;8.624;2023-01-16T09:13:06;5.00;99.90
51011;DHT22;37038;50.182;8.624;2023-01-16T09:16:29;5.00;99.90
51011;DHT22;37038;50.182;8.624;2023-01-16T09:23:48;4.70;99.90
51011;DHT22;37038;50.182;8.624;2023-01-16T09:26:48;4.60;99.90
51011;DHT22;37038;50.182;8.624;2023-01-16T09:29:42;4.60;99.90
51011;DHT22;37038;50.182;8.624;2023-01-16T09:32:34;4.60;99.90
51011;DHT22;37038;50.182;8.624;2023-01-16T09:35:25;4.70;99.90
51011;DHT22;37038;50.182;8.624;2023-01-16T09:38:16;4.70;99.90
51011;DHT22;37038;50.182;8.624;2023-01-16T09:41:16;4.80;99.90
51011;DHT22;37038;50.182;8.624;2023-01-16T09:44:29;4.80;99.90
51011;DHT22;37038;50.182;8.624;2023-01-16T09:47:35;4.80;99.90
51011;DHT22;37038;50.182;8.624;2023-01-16T09:51:12;4.80;99.90
51011;DHT22;37038;50.182;8.624;2023-01-16T09:54:53;4.80;99.90
51011;DHT22;37038;50.182;8.624;2023-01-16T09:58:46;4.80;99.90
51011;DHT22;37038;50.182;8.624;2023-01-16T10:31:18;4.80;99.90
51011;DHT22;37038;50.182;8.624;2023-01-16T10:34:47;4.60;99.90
51011;DHT22;37038;50.182;8.624;2023-01-16T10:37:40;4.50;99.90
51011;DHT22;37038;50.182;8.624;2023-01-16T10:40:44;4.50;99.90
51011;DHT22;37038;50.182;8.624;2023-01-16T10:49:09;4.50;99.90
51011;DHT22;37038;50.182;8.624;2023-01-16T10:55:19;4.40;99.90
51011;DHT22;37038;50.182;8.624;2023-01-16T10:58:43;4.30;99.90
51011;DHT22;37038;50.182;8.624;2023-01-16T11:01:52;4.30;99.90
51011;DHT22;37038;50.182;8.624;2023-01-16T11:05:20;4.40;99.90
51011;DHT22;37038;50.182;8.624;2023-01-16T11:13:45;4.40;99.90
51011;DHT22;37038;50.182;8.624;2023-01-16T11:20:34;4.40;99.90
51011;DHT22;37038;50.182;8.624;2023-01-16T11:26:34;4.30;99.90
51011;DHT22;37038;50.182;8.624;2023-01-16T11:29:39;4.30;99.90
51011;DHT22;37038;50.182;8.624;2023-01-16T11:32:35;4.30;99.90
51011;DHT22;37038;50.182;8.624;2023-01-16T11:35:32;4.30;99.90
51011;DHT22;37038;50.182;8.624;2023-01-16T11:38:22;4.30;99.90
51011;DHT22;37038;50.182;8.624;2023-01-16T11:41:27;4.20;99.90
51011;DHT22;37038;50.182;8.624;2023-01-16T11:44:24;4.20;99.90
51011;DHT22;37038;50.182;8.624;2023-01-16T11:47:41;4.30;99.90
51011;DHT22;37038;50.182;8.624;2023-01-16T11:50:33;4.10;99.90
51011;DHT22;37038;50.182;8.624;2023-01-16T11:53:48;4.20;99.90
51011;DHT22;37038;50.182;8.624;2023-01-16T12:54:18;4.90;99.90
51011;DHT22;37038;50.182;8.624;2023-01-16T12:58:15;4.90;99.90
51011;DHT22;37038;50.182;8.624;2023-01-16T13:01:46;5.20;99.90
51011;DHT22;37038;50.182;8.624;2023-01-16T13:05:25;6.00;99.90
51011;DHT22;37038;50.182;8.624;2023-01-16T13:12:51;5.80;99.90
51011;DHT22;37038;50.182;8.624;2023-01-16T13:20:14;5.50;99.90
51011;DHT22;37038;50.182;8.624;2023-01-16T13:23:17;5.40;99.90
51011;DHT22;37038;50.182;8.624;2023-01-16T13:26:31;5.50;99.90
51011;DHT22;37038;50.182;8.624;2023-01-16T13:29:41;5.60;99.90
51011;DHT22;37038;50.182;8.624;2023-01-16T13:44:40;5.60;99.90
51011;DHT22;37038;50.182;8.624;2023-01-16T13:48:12;5.70;99.90
51011;DHT22;37038;50.182;8.624;2023-01-16T13:51:55;5.70;99.90
51011;DHT22;37038;50.182;8.624;2023-01-16T13:54:57;5.70;99.90
51011;DHT22;37038;50.182;8.624;2023-01-16T13:58:13;5.80;99.90
51011;DHT22;37038;50.182;8.624;2023-01-16T14:01:05;5.80;99.90
51011;DHT22;37038;50.182;8.624;2023-01-16T14:11:38;5.90;99.90
51011;DHT22;37038;50.182;8.624;2023-01-16T14:21:00;5.80;99.90
51011;DHT22;37038;50.182;8.624;2023-01-16T14:23:54;5.90;99.90
51011;DHT22;37038;50.182;8.624;2023-01-16T14:26:53;5.90;99.90
51011;DHT22;37038;50.182;8.624;2023-01-16T14:29:57;5.80;99.90
51011;DHT22;37038;50.182;8.624;2023-01-16T14:32:48;5.70;99.90
51011;DHT22;37038;50.182;8.624;2023-01-16T14:35:50;5.60;99.90
51011;DHT22;37038;50.182;8.624;2023-01-16T14:38:45;5.60;99.90
51011;DHT22;37038;50.182;8.624;2023-01-16T14:41:41;5.70;99.90
51011;DHT22;37038;50.182;8.624;2023-01-16T14:51:32;5.90;99.90
51011;DHT22;37038;50.182;8.624;2023-01-16T14:54:48;5.90;99.90
51011;DHT22;37038;50.182;8.624;2023-01-16T14:58:12;5.90;99.90
51011;DHT22;37038;50.182;8.624;2023-01-16T15:01:29;6.00;99.90
51011;DHT22;37038;50.182;8.624;2023-01-16T15:12:51;5.90;99.90
51011;DHT22;37038;50.182;8.624;2023-01-16T15:16:04;5.90;99.90
51011;DHT22;37038;50.182;8.624;2023-01-16T15:18:53;6.00;99.90
51011;DHT22;37038;50.182;8.624;2023-01-16T15:22:23;6.00;99.90
51011;DHT22;37038;50.182;8.624;2023-01-16T15:25:52;5.90;99.90
51011;DHT22;37038;50.182;8.624;2023-01-16T15:29:13;5.90;99.90
51011;DHT22;37038;50.182;8.624;2023-01-16T15:35:39;5.80;99.90
51011;DHT22;37038;50.182;8.624;2023-01-16T15:39:18;5.80;99.90
51011;DHT22;37038;50.182;8.624;2023-01-16T15:46:31;5.60;99.90
51011;DHT22;37038;50.182;8.624;2023-01-16T15:52:39;5.10;99.90
51011;DHT22;37038;50.182;8.624;2023-01-16T15:55:41;4.80;99.90
51011;DHT22;37038;50.182;8.624;2023-01-16T15:58:31;4.70;99.90
51011;DHT22;37038;50.182;8.624;2023-01-16T16:05:14;4.50;99.90
51011;DHT22;37038;50.182;8.624;2023-01-16T16:08:28;4.40;99.90
51011;DHT22;37038;50.182;8.624;2023-01-16T16:11:39;4.40;99.90
51011;DHT22;37038;50.182;8.624;2023-01-16T16:14:48;4.40;99.90
51011;DHT22;37038;50.182;8.624;2023-01-16T16:18:23;4.40;99.90
51011;DHT22;37038;50.182;8.624;2023-01-16T16:21:20;4.60;99.90
51011;DHT22;37038;50.182;8.624;2023-01-16T16:24:13;4.60;99.90
51011;DHT22;37038;50.182;8.624;2023-01-16T16:27:06;4.60;99.90
51011;DHT22;37038;50.182;8.624;2023-01-16T16:29:55;4.60;99.90
51011;DHT22;37038;50.182;8.624;2023-01-16T16:32:46;4.70;99.90
51011;DHT22;37038;50.182;8.624;2023-01-16T16:35:35;4.70;99.90
51011;DHT22;37038;50.182;8.624;2023-01-16T16:38:47;4.80;99.90
51011;DHT22;37038;50.182;8.624;2023-01-16T16:41:42;4.90;99.90
51011;DHT22;37038;50.182;8.624;2023-01-16T16:48:21;4.90;99.90
51011;DHT22;37038;50.182;8.624;2023-01-16T16:51:22;4.80;99.90
51011;DHT22;37038;50.182;8.624;2023-01-16T16:54:17;4.80;99.90
51011;DHT22;37038;50.182;8.624;2023-01-16T16:57:08;4.90;99.90
51011;DHT22;37038;50.182;8.624;2023-01-16T16:59:59;4.80;99.90
51011;DHT22;37038;50.182;8.624;2023-01-16T17:03:18;4.80;99.90
51011;DHT22;37038;50.182;8.624;2023-01-16T17:06:15;4.80;99.90
51011;DHT22;37038;50.182;8.624;2023-01-16T17:09:05;4.80;99.90
51011;DHT22;37038;50.182;8.624;2023-01-16T17:12:16;4.80;99.90
51011;DHT22;37038;50.182;8.624;2023-01-16T17:15:08;4.80;99.90
51011;DHT22;37038;50.182;8.624;2023-01-16T17:18:09;4.80;99.90
51011;DHT22;37038;50.182;8.624;2023-01-16T17:21:20;4.80;99.90
51011;DHT22;37038;50.182;8.624;2023-01-16T17:24:31;4.70;99.90
51011;DHT22;37038;50.182;8.624;2023-01-16T17:27:22;4.70;99.90
51011;DHT22;37038;50.182;8.624;2023-01-16T17:30:16;4.70;99.90
51011;DHT22;37038;50.182;8.624;2023-01-16T17:36:00;4.70;99.90
51011;DHT22;37038;50.182;8.624;2023-01-16T17:39:01;4.70;99.90
51011;DHT22;37038;50.182;8.624;2023-01-16T17:41:50;4.70;99.90
51011;DHT22;37038;50.182;8.624;2023-01-16T17:44:38;4.60;99.90
51011;DHT22;37038;50.182;8.624;2023-01-16T17:48:07;4.50;99.90
51011;DHT22;37038;50.182;8.624;2023-01-16T17:51:13;4.50;99.90
51011;DHT22;37038;50.182;8.624;2023-01-16T17:54:29;4.50;99.90
51011;DHT22;37038;50.182;8.624;2023-01-16T17:58:04;4.50;99.90
51011;DHT22;37038;50.182;8.624;2023-01-16T18:01:00;4.50;99.90
51011;DHT22;37038;50.182;8.624;2023-01-16T18:11:06;4.50;99.90
51011;DHT22;37038;50.182;8.624;2023-01-16T18:14:21;4.50;99.90
51011;DHT22;37038;50.182;8.624;2023-01-16T18:25:37;4.60;99.90
51011;DHT22;37038;50.182;8.624;2023-01-16T18:29:11;4.60;99.90
51011;DHT22;37038;50.182;8.624;2023-01-16T18:32:22;4.60;99.90
51011;DHT22;37038;50.182;8.624;2023-01-16T18:35:19;4.60;99.90
51011;DHT22;37038;50.182;8.624;2023-01-16T18:38:12;4.60;99.90
51011;DHT22;37038;50.182;8.624;2023-01-16T18:41:20;4.60;99.90
51011;DHT22;37038;50.182;8.624;2023-01-16T18:44:41;4.50;99.90
51011;DHT22;37038;50.182;8.624;2023-01-16T18:47:50;4.60;99.90
51011;DHT22;37038;50.182;8.624;2023-01-16T18:50:58;4.50;99.90
51011;DHT22;37038;50.182;8.624;2023-01-16T18:54:15;4.50;99.90
51011;DHT22;37038;50.182;8.624;2023-01-16T18:57:29;4.50;99.90
51011;DHT22;37038;50.182;8.624;2023-01-16T19:00:36;4.40;99.90
51011;DHT22;37038;50.182;8.624;2023-01-16T19:03:46;4.40;99.90
51011;DHT22;37038;50.182;8.624;2023-01-16T19:06:34;4.30;99.90
51011;DHT22;37038;50.182;8.624;2023-01-16T19:09:27;4.30;99.90
51011;DHT22;37038;50.182;8.624;2023-01-16T19:12:17;4.20;99.90
51011;DHT22;37038;50.182;8.624;2023-01-16T19:15:15;4.20;99.90
51011;DHT22;37038;50.182;8.624;2023-01-16T19:18:04;4.20;99.90
51011;DHT22;37038;50.182;8.624;2023-01-16T19:20:53;4.10;99.90
51011;DHT22;37038;50.182;8.624;2023-01-16T19:23:44;4.10;99.90
51011;DHT22;37038;50.182;8.624;2023-01-16T19:26:51;4.10;99.90
51011;DHT22;37038;50.182;8.624;2023-01-16T19:29:50;4.00;99.90
51011;DHT22;37038;50.182;8.624;2023-01-16T19:32:43;4.00;99.90
51011;DHT22;37038;50.182;8.624;2023-01-16T19:35:39;4.00;99.90
51011;DHT22;37038;50.182;8.624;2023-01-16T19:38:27;4.00;99.90
51011;DHT22;37038;50.182;8.624;2023-01-16T19:41:18;4.00;99.90
51011;DHT22;37038;50.182;8.624;2023-01-16T19:44:31;4.00;99.90
51011;DHT22;37038;50.182;8.624;2023-01-16T19:48:13;4.00;99.90
51011;DHT22;37038;50.182;8.624;2023-01-16T19:51:26;4.00;99.90
51011;DHT22;37038;50.182;8.624;2023-01-16T19:54:22;3.90;99.90
51011;DHT22;37038;50.182;8.624;2023-01-16T19:57:28;3.90;99.90
51011;DHT22;37038;50.182;8.624;2023-01-16T20:00:20;3.80;99.90
51011;DHT22;37038;50.182;8.624;2023-01-16T20:03:20;3.80;99.90
51011;DHT22;37038;50.182;8.624;2023-01-16T20:06:21;3.70;99.90
51011;DHT22;37038;50.182;8.624;2023-01-16T20:10:01;3.80;99.90
51011;DHT22;37038;50.182;8.624;2023-01-16T20:26:14;3.70;99.90
51011;DHT22;37038;50.182;8.624;2023-01-16T20:29:30;3.70;99.90
51011;DHT22;37038;50.182;8.624;2023-01-16T20:32:38;3.70;99.90
51011;DHT22;37038;50.182;8.624;2023-01-16T20:36:17;3.70;99.90
51011;DHT22;37038;50.182;8.624;2023-01-16T20:39:19;3.70;99.90
51011;DHT22;37038;50.182;8.624;2023-01-16T20:42:54;3.70;99.90
51011;DHT22;37038;50.182;8.624;2023-01-16T20:49:18;3.60;99.90
51011;DHT22;37038;50.182;8.624;2023-01-16T20:52:19;3.60;99.90
51011;DHT22;37038;50.182;8.624;2023-01-16T20:55:11;3.60;99.90
51011;DHT22;37038;50.182;8.624;2023-01-16T20:58:18;3.70;99.90
51011;DHT22;37038;50.182;8.624;2023-01-16T21:01:08;3.70;99.90
51011;DHT22;37038;50.182;8.624;2023-01-16T21:03:59;3.80;99.90
51011;DHT22;37038;50.182;8.624;2023-01-16T21:06:50;3.80;99.90
51011;DHT22;37038;50.182;8.624;2023-01-16T21:09:45;3.70;99.90
51011;DHT22;37038;50.182;8.624;2023-01-16T21:15:27;3.70;99.90
51011;DHT22;37038;50.182;8.624;2023-01-16T21:18:19;3.70;99.90
51011;DHT22;37038;50.182;8.624;2023-01-16T21:21:27;3.70;99.90
51011;DHT22;37038;50.182;8.624;2023-01-16T21:24:39;3.70;99.90
51011;DHT22;37038;50.182;8.624;2023-01-16T21:27:57;3.70;99.90
51011;DHT22;37038;50.182;8.624;2023-01-16T21:31:04;3.70;99.90
51011;DHT22;37038;50.182;8.624;2023-01-16T21:34:04;3.80;99.90
51011;DHT22;37038;50.182;8.624;2023-01-16T21:37:00;3.70;99.90
51011;DHT22;37038;50.182;8.624;2023-01-16T21:39:55;3.70;99.90
51011;DHT22;37038;50.182;8.624;2023-01-16T21:42:49;3.70;99.90
51011;DHT22;37038;50.182;8.624;2023-01-16T21:46:14;3.80;99.90
51011;DHT22;37038;50.182;8.624;2023-01-16T21:49:30;3.70;99.90
51011;DHT22;37038;50.182;8.624;2023-01-16T21:52:18;3.80;99.90
51011;DHT22;37038;50.182;8.624;2023-01-16T21:55:29;3.80;99.90
51011;DHT22;37038;50.182;8.624;2023-01-16T21:58:36;3.80;99.90
51011;DHT22;37038;50.182;8.624;2023-01-16T22:05:10;3.90;99.90
51011;DHT22;37038;50.182;8.624;2023-01-16T22:08:20;3.90;99.90
51011;DHT22;37038;50.182;8.624;2023-01-16T22:11:16;3.90;99.90
51011;DHT22;37038;50.182;8.624;2023-01-16T22:14:50;3.90;99.90
51011;DHT22;37038;50.182;8.624;2023-01-16T22:18:16;3.90;99.90
51011;DHT22;37038;50.182;8.624;2023-01-16T22:21:12;3.90;99.90
51011;DHT22;37038;50.182;8.624;2023-01-16T22:24:09;3.90;99.90
51011;DHT22;37038;50.182;8.624;2023-01-16T22:27:09;3.90;99.90
51011;DHT22;37038;50.182;8.624;2023-01-16T22:30:03;4.00;99.90
51011;DHT22;37038;50.182;8.624;2023-01-16T22:32:55;3.90;99.90
51011;DHT22;37038;50.182;8.624;2023-01-16T22:36:00;4.00;99.90
51011;DHT22;37038;50.182;8.624;2023-01-16T22:39:03;4.00;99.90
51011;DHT22;37038;50.182;8.624;2023-01-16T22:42:18;4.00;99.90
51011;DHT22;37038;50.182;8.624;2023-01-16T22:45:09;4.00;99.90
51011;DHT22;37038;50.182;8.624;2023-01-16T22:48:28;4.00;99.90
51011;DHT22;37038;50.182;8.624;2023-01-16T22:51:19;4.00;99.90
51011;DHT22;37038;50.182;8.624;2023-01-16T22:54:20;4.00;99.90
51011;DHT22;37038;50.182;8.624;2023-01-16T22:57:38;4.00;99.90
51011;DHT22;37038;50.182;8.624;2023-01-16T23:00:33;4.00;99.90
51011;DHT22;37038;50.182;8.624;2023-01-16T23:03:24;4.00;99.90
51011;DHT22;37038;50.182;8.624;2023-01-16T23:06:19;4.00;99.90
51011;DHT22;37038;50.182;8.624;2023-01-16T23:12:56;4.10;99.90
51011;DHT22;37038;50.182;8.624;2023-01-16T23:19:32;4.10;99.90
51011;DHT22;37038;50.182;8.624;2023-01-16T23:25:06;4.00;99.90
51011;DHT22;37038;50.182;8.624;2023-01-16T23:28:19;4.00;99.90
51011;DHT22;37038;50.182;8.624;2023-01-16T23:34:11;4.00;99.90
51011;DHT22;37038;50.182;8.624;2023-01-16T23:37:09;3.90;99.90
51011;DHT22;37038;50.182;8.624;2023-01-16T23:40:19;4.00;99.90
51011;DHT22;37038;50.182;8.624;2023-01-16T23:43:15;3.90;99.90
51011;DHT22;37038;50.182;8.624;2023-01-16T23:49:55;3.90;99.90
51011;DHT22;37038;50.182;8.624;2023-01-16T23:52:59;3.90;99.90
51011;DHT22;37038;50.182;8.624;2023-01-16T23:55:54;3.80;99.90
51011;DHT22;37038;50.182;8.624;2023-01-16T23:58:50;3.80;99.90
